Time;durP1;ratioP1;P1;durP2;ratioP2;P2;SDS_P1;SDS_P2;PMS_P1;PMS_P2;Temp;Humidity;BMP_temperature;BMP_pressure;BME280_temperature;BME280_humidity;BME280_pressure;Samples;Min_cycle;Max_cycle;Signal;HPM_P1;HPM_P2
2023/07/07 00:01:36;;;;;;;;;;;;;;;12.44;39.74;95929.09;4965763;28;19929;-62
2023/07/07 00:04:02;;;;;;;;;;;;;;;12.49;40.37;95918.69;4965814;28;20349;-64
2023/07/07 00:06:27;;;;;;;;;;;;;;;12.47;40.02;95928.72;4967633;28;19929;-64
2023/07/07 00:08:52;;;;;;;;;;;;;;;12.45;41.13;95926.25;4966800;28;19918;-63
2023/07/07 00:11:17;;;;;;;;;;;;;;;12.45;41.04;95923.59;4964065;28;19980;-62
2023/07/07 00:13:43;;;;;;;;;;;;;;;12.37;38.99;95920.97;4969836;28;20435;-66
2023/07/07 00:16:08;;;;;;;;;;;;;;;12.28;39.32;95921.06;4970684;28;20415;-65
2023/07/07 00:18:33;;;;;;;;;;;;;;;12.29;41.39;95921.91;4973456;28;19917;-63
2023/07/07 00:20:59;;;;;;;;;;;;;;;12.30;40.70;95918.22;4972951;28;19914;-64
2023/07/07 00:23:29;;;;;;;;;;;;;;;12.31;41.59;95925.22;4971077;28;19957;-62
2023/07/07 00:26:04;;;;;;;;;;;;;;;12.29;41.37;95927.22;4970012;28;20336;-62
2023/07/07 00:28:30;;;;;;;;;;;;;;;12.24;41.36;95921.63;4968847;28;20149;-65
2023/07/07 00:30:55;;;;;;;;;;;;;;;12.19;41.80;95919.47;4955893;28;20437;-64
2023/07/07 00:33:21;;;;;;;;;;;;;;;12.11;40.16;95922.22;4969857;28;20240;-65
2023/07/07 00:35:46;;;;;;;;;;;;;;;11.93;40.06;95920.66;4963055;28;20319;-65
2023/07/07 00:38:12;;;;;;;;;;;;;;;11.96;42.23;95919.47;4964653;28;20026;-64
2023/07/07 00:40:40;;;;;;;;;;;;;;;11.98;40.92;95914.78;4965303;28;20415;-65
2023/07/07 00:43:11;;;;;;;;;;;;;;;11.93;41.32;95920.66;4963367;28;19914;-63
2023/07/07 00:45:36;;;;;;;;;;;;;;;11.94;42.34;95919.69;4963914;28;19918;-64
2023/07/07 00:48:02;;;;;;;;;;;;;;;11.94;41.12;95921.50;4966539;28;19917;-62
2023/07/07 00:50:28;;;;;;;;;;;;;;;11.92;41.83;95911.00;4957370;28;19917;-62
2023/07/07 00:52:53;;;;;;;;;;;;;;;11.91;41.70;95920.03;4955532;28;19944;-63
2023/07/07 00:55:20;;;;;;;;;;;;;;;11.89;42.18;95914.88;4967043;28;19917;-65
2023/07/07 00:57:46;;;;;;;;;;;;;;;11.85;42.34;95915.41;4963426;28;20000;-65
2023/07/07 01:00:11;;;;;;;;;;;;;;;11.82;42.29;95923.75;4962760;28;20017;-65
2023/07/07 01:02:36;;;;;;;;;;;;;;;11.78;41.70;95920.63;4958702;28;19953;-65
2023/07/07 01:05:02;;;;;;;;;;;;;;;11.72;41.85;95921.31;4968369;28;20395;-65
2023/07/07 01:07:30;;;;;;;;;;;;;;;11.68;42.68;95922.69;4950271;28;19957;-64
2023/07/07 01:09:55;;;;;;;;;;;;;;;11.66;42.20;95928.19;4956174;28;19948;-62
2023/07/07 01:12:20;;;;;;;;;;;;;;;11.63;41.84;95921.38;4964596;28;19944;-64
2023/07/07 01:14:46;;;;;;;;;;;;;;;11.63;42.10;95932.03;4972550;28;20007;-65
2023/07/07 01:17:17;;;;;;;;;;;;;;;11.63;42.43;95932.03;4971588;28;19950;-64
2023/07/07 01:19:56;;;;;;;;;;;;;;;11.58;41.19;95925.59;4965039;28;19926;-65
2023/07/07 01:22:21;;;;;;;;;;;;;;;11.57;42.79;95924.78;4947329;28;19922;-64
2023/07/07 01:25:06;;;;;;;;;;;;;;;11.45;41.04;95926.16;4965258;28;20399;-63
2023/07/07 01:27:47;;;;;;;;;;;;;;;11.50;42.14;95926.47;4964732;28;19954;-65
2023/07/07 01:30:15;;;;;;;;;;;;;;;11.41;41.63;95920.38;4953618;28;20284;-65
2023/07/07 01:32:41;;;;;;;;;;;;;;;11.43;40.14;95922.84;4965512;28;19978;-65
2023/07/07 01:35:08;;;;;;;;;;;;;;;11.38;42.34;95928.72;4954506;28;20293;-64
2023/07/07 01:37:33;;;;;;;;;;;;;;;11.43;42.42;95934.38;4970210;28;20323;-63
2023/07/07 01:39:58;;;;;;;;;;;;;;;11.52;41.64;95930.63;4960917;28;19922;-63
2023/07/07 01:42:37;;;;;;;;;;;;;;;11.60;42.38;95928.91;4958102;28;20399;-65
2023/07/07 01:45:08;;;;;;;;;;;;;;;11.66;41.63;95930.06;4958417;28;20459;-65
2023/07/07 01:47:39;;;;;;;;;;;;;;;11.57;38.72;95923.94;4962861;28;20018;-65
2023/07/07 01:50:07;;;;;;;;;;;;;;;11.59;42.23;95932.59;4965147;28;19976;-65
2023/07/07 01:52:42;;;;;;;;;;;;;;;11.62;42.21;95929.56;4951099;28;19921;-65
2023/07/07 01:55:15;;;;;;;;;;;;;;;11.65;41.84;95931.88;4952693;28;20410;-63
2023/07/07 01:57:40;;;;;;;;;;;;;;;11.63;42.58;95931.25;4958844;28;19944;-64
2023/07/07 02:00:06;;;;;;;;;;;;;;;11.61;40.11;95928.75;4956958;28;19948;-63
2023/07/07 02:02:31;;;;;;;;;;;;;;;11.58;42.57;95928.25;4974325;28;19921;-64
2023/07/07 02:04:56;;;;;;;;;;;;;;;11.57;42.70;95924.78;4969834;28;19926;-64
2023/07/07 02:07:21;;;;;;;;;;;;;;;11.52;42.37;95927.97;4974994;28;20181;-64
2023/07/07 02:09:47;;;;;;;;;;;;;;;11.50;41.65;95913.97;4975470;28;20415;-65
2023/07/07 02:12:12;;;;;;;;;;;;;;;11.49;42.21;95922.97;4965707;28;20295;-63
2023/07/07 02:14:37;;;;;;;;;;;;;;;11.46;40.85;95923.31;4967915;28;19917;-63
2023/07/07 02:17:02;;;;;;;;;;;;;;;11.44;41.57;95922.69;4967919;28;20222;-63
2023/07/07 02:19:28;;;;;;;;;;;;;;;11.43;42.67;95922.84;4968702;28;19962;-65
2023/07/07 02:21:53;;;;;;;;;;;;;;;11.44;41.06;95920.03;4966695;28;19949;-63
2023/07/07 02:24:18;;;;;;;;;;;;;;;11.48;42.88;95920.47;4968581;28;20473;-65
2023/07/07 02:26:43;;;;;;;;;;;;;;;11.44;41.33;95920.03;4967480;28;20276;-62
2023/07/07 02:29:09;;;;;;;;;;;;;;;11.43;42.63;95918.38;4967855;28;20062;-65
2023/07/07 02:31:34;;;;;;;;;;;;;;;11.35;43.10;95915.72;4970416;28;20036;-62
2023/07/07 02:33:59;;;;;;;;;;;;;;;11.25;43.43;95923.94;4970420;28;19918;-64
2023/07/07 02:36:25;;;;;;;;;;;;;;;11.22;43.01;95916.31;4968328;28;20214;-65
2023/07/07 02:38:52;;;;;;;;;;;;;;;11.20;42.73;95918.31;4968048;28;20109;-65
2023/07/07 02:41:18;;;;;;;;;;;;;;;11.17;42.75;95923.97;4965667;28;19926;-64
2023/07/07 02:43:43;;;;;;;;;;;;;;;11.13;42.08;95921.66;4969879;28;19917;-63
2023/07/07 02:46:08;;;;;;;;;;;;;;;11.06;39.41;95923.34;4966371;28;19958;-64
2023/07/07 02:48:33;;;;;;;;;;;;;;;11.05;43.17;95921.69;4969325;28;19921;-61
2023/07/07 02:50:59;;;;;;;;;;;;;;;11.07;42.67;95922.34;4967707;28;20387;-65
2023/07/07 02:53:25;;;;;;;;;;;;;;;11.02;42.43;95926.53;4970896;28;19957;-65
2023/07/07 02:55:50;;;;;;;;;;;;;;;11.03;43.76;95936.19;4969675;28;19984;-65
2023/07/07 02:58:16;;;;;;;;;;;;;;;11.02;42.48;95932.69;4964680;28;19921;-65
2023/07/07 03:00:41;;;;;;;;;;;;;;;11.03;42.94;95933.50;4960532;28;19928;-64
2023/07/07 03:03:07;;;;;;;;;;;;;;;10.87;39.49;95928.09;4969168;28;19960;-64
2023/07/07 03:05:32;;;;;;;;;;;;;;;10.69;40.20;95938.97;4965079;28;20020;-63
2023/07/07 03:07:57;;;;;;;;;;;;;;;10.54;39.99;95938.81;4959623;28;19925;-61
2023/07/07 03:10:23;;;;;;;;;;;;;;;10.69;43.50;95938.13;4963943;28;19981;-64
2023/07/07 03:12:48;;;;;;;;;;;;;;;10.79;43.63;95930.78;4964376;28;20378;-65
2023/07/07 03:15:13;;;;;;;;;;;;;;;10.86;43.47;95930.91;4963960;28;20303;-65
2023/07/07 03:17:39;;;;;;;;;;;;;;;10.96;43.65;95938.72;4965058;28;19922;-63
2023/07/07 03:20:05;;;;;;;;;;;;;;;10.99;42.69;95930.38;4963887;28;20079;-62
2023/07/07 03:22:31;;;;;;;;;;;;;;;11.00;43.08;95934.69;4964585;28;19930;-64
2023/07/07 03:24:56;;;;;;;;;;;;;;;10.98;41.47;95939.38;4963743;28;20596;-64
2023/07/07 03:27:21;;;;;;;;;;;;;;;10.94;42.74;95941.53;4964900;28;19926;-63
2023/07/07 03:29:48;;;;;;;;;;;;;;;10.83;39.09;95944.56;4965015;28;20117;-63
2023/07/07 03:32:13;;;;;;;;;;;;;;;10.88;42.42;95948.38;4962478;28;20390;-64
2023/07/07 03:34:42;;;;;;;;;;;;;;;10.96;43.11;95944.03;4963587;28;19969;-65
2023/07/07 03:37:07;;;;;;;;;;;;;;;11.00;42.47;95945.34;4963907;28;20460;-64
2023/07/07 03:39:32;;;;;;;;;;;;;;;11.06;42.99;95944.66;4967288;28;19918;-63
2023/07/07 03:41:57;;;;;;;;;;;;;;;10.98;42.46;95947.38;4966208;28;20387;-62
2023/07/07 03:44:23;;;;;;;;;;;;;;;11.01;42.01;95955.00;4968866;28;19917;-64
2023/07/07 03:46:48;;;;;;;;;;;;;;;11.05;42.25;95952.84;4966644;28;19940;-63
2023/07/07 03:49:13;;;;;;;;;;;;;;;11.09;41.48;95956.84;4968642;28;20402;-61
2023/07/07 03:51:39;;;;;;;;;;;;;;;11.18;42.17;95957.66;4964723;28;19930;-64
2023/07/07 03:54:04;;;;;;;;;;;;;;;11.25;42.91;95954.09;4965670;28;19997;-64
2023/07/07 03:56:29;;;;;;;;;;;;;;;11.12;38.92;95949.31;4969529;28;19951;-62
2023/07/07 03:58:54;;;;;;;;;;;;;;;11.25;42.31;95955.91;4968994;28;19921;-63
2023/07/07 04:01:20;;;;;;;;;;;;;;;11.33;42.43;95961.25;4966720;28;19925;-63
2023/07/07 04:03:46;;;;;;;;;;;;;;;11.36;40.29;95954.72;4962817;28;20001;-64
2023/07/07 04:06:12;;;;;;;;;;;;;;;11.40;41.49;95956.03;4963562;28;20240;-64
2023/07/07 04:08:37;;;;;;;;;;;;;;;11.38;40.80;95956.19;4963403;28;20090;-63
2023/07/07 04:11:03;;;;;;;;;;;;;;;11.48;42.56;95953.31;4963133;28;19918;-63
2023/07/07 04:13:29;;;;;;;;;;;;;;;11.57;41.71;95956.78;4964494;28;19952;-65
2023/07/07 04:16:21;;;;;;;;;;;;;;;11.67;40.70;95950.38;4964968;28;19944;-65
2023/07/07 04:18:46;;;;;;;;;;;;;;;11.77;41.50;95956.31;4961127;28;19910;-63
2023/07/07 04:21:12;;;;;;;;;;;;;;;11.80;39.38;95955.94;4965184;28;19925;-63
2023/07/07 04:23:38;;;;;;;;;;;;;;;11.84;38.84;95962.59;4967545;28;19922;-63
2023/07/07 04:26:03;;;;;;;;;;;;;;;11.92;40.00;95958.19;4965048;28;20346;-64
2023/07/07 04:28:29;;;;;;;;;;;;;;;11.96;39.45;95963.00;4965246;28;20413;-65
2023/07/07 04:30:55;;;;;;;;;;;;;;;12.08;40.62;95962.63;4967496;28;19918;-65
2023/07/07 04:33:20;;;;;;;;;;;;;;;12.25;39.24;95963.31;4966197;28;19941;-63
2023/07/07 04:35:50;;;;;;;;;;;;;;;12.30;40.23;95960.91;4965240;28;20036;-63
2023/07/07 04:38:15;;;;;;;;;;;;;;;12.37;39.59;95961.84;4959814;28;19948;-65
2023/07/07 04:40:40;;;;;;;;;;;;;;;12.47;39.66;95966.94;4961574;28;20451;-65
2023/07/07 04:43:05;;;;;;;;;;;;;;;12.58;39.75;95960.31;4969640;28;20020;-64
2023/07/07 04:45:32;;;;;;;;;;;;;;;12.58;39.67;95964.84;4966721;28;19961;-65
2023/07/07 04:47:57;;;;;;;;;;;;;;;12.74;39.67;95969.19;4965777;28;19930;-64
2023/07/07 04:50:23;;;;;;;;;;;;;;;12.90;39.60;95965.50;4964005;28;20581;-65
2023/07/07 04:52:48;;;;;;;;;;;;;;;13.00;39.06;95967.94;4964026;28;20050;-65
2023/07/07 04:55:13;;;;;;;;;;;;;;;13.09;39.11;95964.13;4961053;28;20013;-64
2023/07/07 04:57:39;;;;;;;;;;;;;;;13.25;38.72;95967.63;4962112;28;19933;-64
2023/07/07 05:00:04;;;;;;;;;;;;;;;13.39;38.54;95969.44;4961829;28;20462;-64
2023/07/07 05:02:30;;;;;;;;;;;;;;;13.52;37.72;95966.13;4964233;28;19957;-65
2023/07/07 05:04:55;;;;;;;;;;;;;;;13.71;38.13;95974.56;4964176;28;20632;-65
2023/07/07 05:07:20;;;;;;;;;;;;;;;13.91;37.29;95965.94;4963613;28;20338;-65
2023/07/07 05:09:45;;;;;;;;;;;;;;;14.06;36.73;95969.38;4966458;28;20033;-64
2023/07/07 05:12:11;;;;;;;;;;;;;;;14.23;36.74;95974.47;4962500;28;19960;-66
2023/07/07 05:14:36;;;;;;;;;;;;;;;14.39;36.60;95972.53;4962275;28;19929;-66
2023/07/07 05:17:01;;;;;;;;;;;;;;;14.58;36.29;95971.84;4966232;28;19918;-65
2023/07/07 05:19:26;;;;;;;;;;;;;;;14.70;36.14;95971.31;4960143;28;19921;-64
2023/07/07 05:21:52;;;;;;;;;;;;;;;14.90;35.78;95979.53;4964022;28;20268;-64
2023/07/07 05:24:17;;;;;;;;;;;;;;;15.12;35.39;95974.06;4960078;28;19922;-65
2023/07/07 05:26:42;;;;;;;;;;;;;;;15.31;35.15;95977.03;4966236;28;19924;-64
2023/07/07 05:29:08;;;;;;;;;;;;;;;15.46;35.19;95971.53;4961259;28;20295;-63
2023/07/07 05:31:33;;;;;;;;;;;;;;;15.65;34.93;95974.50;4962937;28;20370;-64
2023/07/07 05:33:59;;;;;;;;;;;;;;;15.83;34.74;95976.63;4961446;28;19937;-66
2023/07/07 05:36:24;;;;;;;;;;;;;;;15.96;34.24;95973.97;4961703;28;20073;-64
2023/07/07 05:38:50;;;;;;;;;;;;;;;16.12;34.36;95978.13;4962471;28;20426;-66
2023/07/07 05:41:15;;;;;;;;;;;;;;;16.32;34.05;95985.38;4964290;28;19913;-66
2023/07/07 05:43:40;;;;;;;;;;;;;;;16.51;33.84;95986.44;4962076;28;20036;-64
2023/07/07 05:46:07;;;;;;;;;;;;;;;16.66;33.92;95982.72;4967591;28;19918;-65
2023/07/07 05:48:33;;;;;;;;;;;;;;;16.71;33.31;95991.00;4962831;28;20466;-66
2023/07/07 05:50:59;;;;;;;;;;;;;;;16.78;33.23;95982.91;4964369;28;20009;-63
2023/07/07 05:53:24;;;;;;;;;;;;;;;17.03;33.39;95987.59;4963365;28;20221;-64
2023/07/07 05:55:50;;;;;;;;;;;;;;;17.15;32.82;95994.03;4962062;28;19985;-66
2023/07/07 05:58:15;;;;;;;;;;;;;;;17.45;32.63;95981.09;4962876;28;20395;-65
2023/07/07 06:00:41;;;;;;;;;;;;;;;17.59;32.03;95990.78;4959471;28;20534;-66
2023/07/07 06:03:06;;;;;;;;;;;;;;;17.72;31.99;95987.22;4959639;28;20352;-66
2023/07/07 06:05:32;;;;;;;;;;;;;;;17.88;31.45;95987.78;4963543;28;19940;-65
2023/07/07 06:07:57;;;;;;;;;;;;;;;17.95;31.02;95982.34;4963361;28;19922;-66
2023/07/07 06:10:22;;;;;;;;;;;;;;;18.09;31.04;95989.31;4963172;28;20048;-64
2023/07/07 06:12:47;;;;;;;;;;;;;;;18.29;30.10;95983.75;4963686;28;19941;-65
2023/07/07 06:15:13;;;;;;;;;;;;;;;18.42;30.98;95982.00;4964045;28;19918;-65
2023/07/07 06:17:38;;;;;;;;;;;;;;;18.48;30.34;95985.69;4960748;28;20391;-66
2023/07/07 06:20:03;;;;;;;;;;;;;;;18.64;29.87;95987.88;4964651;28;19957;-64
2023/07/07 06:22:29;;;;;;;;;;;;;;;18.76;29.88;95990.66;4965101;28;20382;-65
2023/07/07 06:24:54;;;;;;;;;;;;;;;18.91;29.41;95990.34;4964866;28;19921;-65
2023/07/07 06:27:19;;;;;;;;;;;;;;;19.05;29.62;95988.31;4964964;28;20511;-64
2023/07/07 06:29:44;;;;;;;;;;;;;;;19.09;29.44;95988.69;4965988;28;20286;-65
2023/07/07 06:32:10;;;;;;;;;;;;;;;18.98;28.65;95990.25;4959417;28;19988;-66
2023/07/07 06:34:38;;;;;;;;;;;;;;;19.26;28.47;95990.78;4965987;28;19925;-67
2023/07/07 06:37:03;;;;;;;;;;;;;;;19.32;28.39;95988.06;4972405;28;19923;-67
2023/07/07 06:39:28;;;;;;;;;;;;;;;19.46;27.63;95983.34;4962568;28;20286;-67
2023/07/07 06:41:54;;;;;;;;;;;;;;;19.49;28.40;95992.00;4972615;28;20011;-66
2023/07/07 06:44:19;;;;;;;;;;;;;;;19.72;28.34;95994.84;4970535;28;19925;-68
2023/07/07 06:46:44;;;;;;;;;;;;;;;19.85;28.06;96001.09;4964221;28;19992;-67
2023/07/07 06:49:10;;;;;;;;;;;;;;;19.69;28.04;95994.47;4971813;28;19913;-67
2023/07/07 06:51:35;;;;;;;;;;;;;;;19.72;28.16;95996.72;4956914;28;19961;-67
2023/07/07 06:54:00;;;;;;;;;;;;;;;20.03;27.84;95991.34;4968702;28;19980;-67
2023/07/07 06:56:25;;;;;;;;;;;;;;;20.20;26.94;95996.94;4970584;28;19945;-68
2023/07/07 06:58:51;;;;;;;;;;;;;;;20.00;27.19;95995.34;4967094;28;19929;-67
2023/07/07 07:01:16;;;;;;;;;;;;;;;19.93;27.56;95989.16;4967724;28;20465;-67
2023/07/07 07:03:42;;;;;;;;;;;;;;;20.10;27.32;95990.19;4975411;28;19957;-67
2023/07/07 07:06:08;;;;;;;;;;;;;;;20.12;27.12;95986.44;4971493;28;20513;-67
2023/07/07 07:08:33;;;;;;;;;;;;;;;20.08;25.75;95997.72;4969479;28;20012;-67
2023/07/07 07:11:00;;;;;;;;;;;;;;;20.44;26.77;96000.50;4961623;28;20296;-68
2023/07/07 07:13:25;;;;;;;;;;;;;;;20.72;26.14;96006.31;4959582;28;19930;-67
2023/07/07 07:15:50;;;;;;;;;;;;;;;20.83;26.26;96010.09;4961003;28;20322;-67
2023/07/07 07:18:15;;;;;;;;;;;;;;;21.22;25.02;95998.78;4965427;28;19918;-67
2023/07/07 07:20:40;;;;;;;;;;;;;;;21.23;25.59;96005.84;4968138;28;20001;-67
2023/07/07 07:23:06;;;;;;;;;;;;;;;21.38;25.87;96005.38;4964707;28;20234;-67
2023/07/07 07:25:31;;;;;;;;;;;;;;;20.79;24.34;96003.50;4965606;28;20442;-67
2023/07/07 07:27:56;;;;;;;;;;;;;;;21.10;25.13;96012.31;4964052;28;19925;-68
2023/07/07 07:30:22;;;;;;;;;;;;;;;21.36;23.52;96000.22;4961710;28;20004;-67
2023/07/07 07:32:47;;;;;;;;;;;;;;;21.21;25.32;96005.28;4966658;28;20100;-67
2023/07/07 07:35:12;;;;;;;;;;;;;;;21.10;25.70;96006.91;4970168;28;19969;-67
2023/07/07 07:37:37;;;;;;;;;;;;;;;21.22;23.58;96015.03;4967977;28;19922;-67
2023/07/07 07:40:03;;;;;;;;;;;;;;;20.44;23.71;96015.91;4967526;28;20061;-67
2023/07/07 07:42:28;;;;;;;;;;;;;;;21.37;24.25;96015.41;4965180;28;19914;-68
2023/07/07 07:44:54;;;;;;;;;;;;;;;21.85;24.41;96019.84;4969151;28;20038;-67
2023/07/07 07:47:19;;;;;;;;;;;;;;;22.17;23.66;96021.28;4965510;28;19965;-64
2023/07/07 07:49:45;;;;;;;;;;;;;;;22.45;21.93;96020.44;4967082;28;20440;-64
2023/07/07 07:52:10;;;;;;;;;;;;;;;21.88;23.43;96020.19;4963571;28;19918;-64
2023/07/07 07:54:35;;;;;;;;;;;;;;;21.93;24.17;96019.53;4959202;28;20012;-65
2023/07/07 07:57:01;;;;;;;;;;;;;;;22.11;22.59;96015.78;4961617;28;20307;-64
2023/07/07 07:59:26;;;;;;;;;;;;;;;22.29;22.10;96011.19;4960050;28;20293;-64
2023/07/07 08:01:51;;;;;;;;;;;;;;;22.21;23.25;96025.16;4969391;28;20296;-64
2023/07/07 08:04:16;;;;;;;;;;;;;;;22.68;22.76;96024.09;4970441;28;19921;-68
2023/07/07 08:06:42;;;;;;;;;;;;;;;22.43;23.84;96022.56;4978567;28;20356;-67
2023/07/07 08:09:07;;;;;;;;;;;;;;;22.68;22.01;96015.13;4979477;28;20291;-67
2023/07/07 08:11:42;;;;;;;;;;;;;;;22.92;21.63;96019.28;4961393;28;20339;-67
2023/07/07 08:14:10;;;;;;;;;;;;;;;22.50;21.24;96023.22;4964830;28;19922;-67
2023/07/07 08:16:35;;;;;;;;;;;;;;;22.58;22.74;96027.47;4967087;28;20074;-68
2023/07/07 08:19:01;;;;;;;;;;;;;;;22.73;22.45;96017.91;4963008;28;19983;-67
2023/07/07 08:21:26;;;;;;;;;;;;;;;23.17;22.18;96025.38;4964834;28;19932;-67
2023/07/07 08:23:51;;;;;;;;;;;;;;;22.15;22.77;96030.50;4962914;28;19928;-68
2023/07/07 08:26:16;;;;;;;;;;;;;;;22.73;21.84;96023.34;4963304;28;19990;-68
2023/07/07 08:28:41;;;;;;;;;;;;;;;23.36;22.10;96025.94;4964479;28;19929;-67
2023/07/07 08:31:07;;;;;;;;;;;;;;;23.59;20.71;96034.91;4965724;28;19928;-67
2023/07/07 08:33:32;;;;;;;;;;;;;;;23.47;21.85;96031.47;4964157;28;20020;-67
2023/07/07 08:35:57;;;;;;;;;;;;;;;21.32;22.36;96039.66;4963441;28;20330;-68
2023/07/07 08:38:23;;;;;;;;;;;;;;;21.07;24.22;96029.06;4964951;28;19956;-66
2023/07/07 08:40:50;;;;;;;;;;;;;;;21.20;21.64;96045.03;4961751;28;20219;-67
2023/07/07 08:43:16;;;;;;;;;;;;;;;22.17;22.76;96045.69;4958934;28;19922;-67
2023/07/07 08:45:43;;;;;;;;;;;;;;;22.47;20.72;96031.84;4945038;28;20211;-67
2023/07/07 08:48:26;;;;;;;;;;;;;;;22.63;20.79;96032.13;4953934;28;20020;-67
2023/07/07 08:50:56;;;;;;;;;;;;;;;23.02;19.48;96032.19;4953715;28;20217;-67
2023/07/07 08:53:21;;;;;;;;;;;;;;;22.52;20.55;96028.41;4955547;28;19914;-67
2023/07/07 08:55:50;;;;;;;;;;;;;;;21.76;22.02;96033.78;4950944;28;20020;-67
2023/07/07 08:58:15;;;;;;;;;;;;;;;22.94;22.49;96034.53;4962400;28;19996;-68
2023/07/07 09:00:43;;;;;;;;;;;;;;;23.03;22.42;96033.03;4962275;28;20311;-67
2023/07/07 09:03:20;;;;;;;;;;;;;;;23.66;21.62;96032.03;4959054;28;19926;-67
2023/07/07 09:05:45;;;;;;;;;;;;;;;24.11;20.41;96040.16;4959385;28;19918;-68
2023/07/07 09:08:20;;;;;;;;;;;;;;;23.17;22.22;96028.94;4959382;28;19956;-68
2023/07/07 09:11:00;;;;;;;;;;;;;;;23.37;20.57;96029.47;4954185;28;19917;-67
2023/07/07 09:13:27;;;;;;;;;;;;;;;24.02;19.84;96037.06;4947040;28;20376;-66
2023/07/07 09:15:58;;;;;;;;;;;;;;;24.03;21.07;96038.72;4950335;28;20470;-67
2023/07/07 09:18:25;;;;;;;;;;;;;;;23.94;20.78;96030.19;4960910;28;20392;-67
2023/07/07 09:20:53;;;;;;;;;;;;;;;24.28;20.64;96035.44;4951821;28;20067;-67
2023/07/07 09:23:19;;;;;;;;;;;;;;;24.26;20.95;96042.19;4953254;28;19926;-67
2023/07/07 09:25:45;;;;;;;;;;;;;;;24.84;19.64;96039.75;4953339;28;19922;-67
2023/07/07 09:28:12;;;;;;;;;;;;;;;24.82;18.81;96038.38;4957447;28;19928;-66
2023/07/07 09:30:47;;;;;;;;;;;;;;;23.14;20.29;96034.84;4961170;28;19910;-67
2023/07/07 09:33:13;;;;;;;;;;;;;;;24.37;19.78;96038.53;4956695;28;19989;-68
2023/07/07 09:35:40;;;;;;;;;;;;;;;24.11;20.30;96040.97;4964820;28;20430;-67
2023/07/07 09:38:10;;;;;;;;;;;;;;;24.70;18.81;96036.66;4965086;28;20370;-67
2023/07/07 09:40:43;;;;;;;;;;;;;;;24.69;19.67;96024.13;4959761;28;20264;-66
2023/07/07 09:43:12;;;;;;;;;;;;;;;25.04;18.86;96032.84;4952051;28;19917;-66
2023/07/07 09:45:38;;;;;;;;;;;;;;;25.11;19.55;96031.81;4963432;28;20406;-67
2023/07/07 09:48:16;;;;;;;;;;;;;;;23.72;19.90;96033.69;4952357;28;19921;-66
2023/07/07 09:50:41;;;;;;;;;;;;;;;25.06;18.68;96027.16;4947980;28;19922;-67
2023/07/07 09:53:22;;;;;;;;;;;;;;;24.42;18.20;96026.88;4960532;28;20402;-68
2023/07/07 09:55:47;;;;;;;;;;;;;;;24.34;19.57;96028.19;4961900;28;19918;-66
2023/07/07 09:58:12;;;;;;;;;;;;;;;23.99;20.03;96027.53;4953471;28;20024;-67
2023/07/07 10:00:37;;;;;;;;;;;;;;;25.25;18.91;96022.06;4961063;28;19938;-67
2023/07/07 10:03:04;;;;;;;;;;;;;;;25.42;19.60;96027.34;4961939;28;19926;-66
2023/07/07 10:05:30;;;;;;;;;;;;;;;25.59;18.19;96026.34;4964268;28;19918;-67
2023/07/07 10:07:55;;;;;;;;;;;;;;;26.38;18.04;96028.28;4943099;28;20173;-68
2023/07/07 10:10:21;;;;;;;;;;;;;;;25.41;19.45;96025.72;4941569;28;20061;-67
2023/07/07 10:12:46;;;;;;;;;;;;;;;25.69;17.45;96029.13;4964268;28;19924;-67
2023/07/07 10:15:20;;;;;;;;;;;;;;;25.97;17.62;96024.31;4945831;28;19992;-67
2023/07/07 10:17:48;;;;;;;;;;;;;;;26.50;17.27;96023.38;4964665;28;19917;-67
2023/07/07 10:20:14;;;;;;;;;;;;;;;26.74;17.21;96024.75;4966927;28;19960;-67
2023/07/07 10:22:39;;;;;;;;;;;;;;;27.21;17.11;96020.09;4973444;28;19953;-68
2023/07/07 10:25:05;;;;;;;;;;;;;;;27.16;16.57;96024.75;4963151;28;20060;-67
2023/07/07 10:27:30;;;;;;;;;;;;;;;26.88;17.76;96014.91;4964528;28;19922;-67
2023/07/07 10:29:56;;;;;;;;;;;;;;;27.38;16.59;96016.22;4968259;28;20256;-68
2023/07/07 10:32:22;;;;;;;;;;;;;;;27.50;15.36;96019.44;4964000;28;19922;-68
2023/07/07 10:34:48;;;;;;;;;;;;;;;27.55;16.46;96018.63;4968561;28;19914;-67
2023/07/07 10:37:20;;;;;;;;;;;;;;;27.38;14.66;96018.94;4967169;28;19921;-67
2023/07/07 10:39:53;;;;;;;;;;;;;;;27.72;15.41;96021.03;4965442;28;19925;-68
2023/07/07 10:42:20;;;;;;;;;;;;;;;27.65;13.83;96009.59;4963447;28;20367;-68
2023/07/07 10:44:45;;;;;;;;;;;;;;;27.80;16.62;96014.16;4961364;28;20394;-69
2023/07/07 10:47:10;;;;;;;;;;;;;;;27.77;16.17;96010.06;4967360;28;19930;-67
2023/07/07 10:49:35;;;;;;;;;;;;;;;28.25;15.95;96016.13;4963938;28;19981;-68
2023/07/07 10:52:11;;;;;;;;;;;;;;;27.41;14.09;96009.38;4965665;28;19929;-68
2023/07/07 10:54:45;;;;;;;;;;;;;;;27.40;16.15;96005.84;4970387;28;19918;-67
2023/07/07 10:57:13;;;;;;;;;;;;;;;27.60;14.77;95998.66;4952563;28;20386;-69
2023/07/07 11:00:02;;;;;;;;;;;;;;;27.35;15.66;95997.63;4962380;28;19921;-68
2023/07/07 11:02:43;;;;;;;;;;;;;;;27.63;14.89;96001.66;4956771;28;19926;-68
2023/07/07 11:05:09;;;;;;;;;;;;;;;27.72;16.52;96001.06;4965808;28;19926;-67
2023/07/07 11:07:34;;;;;;;;;;;;;;;24.29;18.02;96007.16;4965644;28;19929;-68
2023/07/07 11:09:59;;;;;;;;;;;;;;;26.38;17.28;96000.97;4964264;28;19973;-73
2023/07/07 11:12:27;;;;;;;;;;;;;;;27.04;16.47;95994.94;4962252;28;20000;-69
2023/07/07 11:14:56;;;;;;;;;;;;;;;27.31;16.99;95993.81;4964324;28;20399;-69
2023/07/07 11:17:29;;;;;;;;;;;;;;;27.76;15.75;95989.31;4955002;28;20384;-69
2023/07/07 11:20:13;;;;;;;;;;;;;;;28.41;16.02;95994.94;4971569;28;19927;-68
2023/07/07 11:22:38;;;;;;;;;;;;;;;27.64;15.72;95997.81;4961871;28;19910;-66
2023/07/07 11:25:22;;;;;;;;;;;;;;;28.19;16.83;95993.47;4963264;28;20042;-68
2023/07/07 11:27:47;;;;;;;;;;;;;;;28.32;15.54;95993.91;4965921;28;20060;-69
2023/07/07 11:30:14;;;;;;;;;;;;;;;28.72;14.69;95991.19;4963464;28;20032;-67
2023/07/07 11:32:49;;;;;;;;;;;;;;;28.91;15.14;95980.31;4951354;28;19918;-67
2023/07/07 11:35:20;;;;;;;;;;;;;;;28.35;16.23;95982.41;4964011;28;20374;-68
2023/07/07 11:37:50;;;;;;;;;;;;;;;29.00;15.80;95981.31;4959218;28;20275;-69
2023/07/07 11:40:21;;;;;;;;;;;;;;;29.47;15.71;95982.75;4945976;28;19922;-68
2023/07/07 11:42:56;;;;;;;;;;;;;;;29.43;13.80;95979.75;4967501;28;20232;-67
2023/07/07 11:45:27;;;;;;;;;;;;;;;29.77;16.19;95976.09;4966564;28;20403;-68
2023/07/07 11:47:57;;;;;;;;;;;;;;;29.76;14.45;95981.84;4963849;28;19922;-69
2023/07/07 11:50:41;;;;;;;;;;;;;;;26.80;16.06;95979.16;4948663;28;20344;-67
2023/07/07 11:53:19;;;;;;;;;;;;;;;27.42;16.13;95983.69;4959431;28;20084;-67
2023/07/07 11:55:50;;;;;;;;;;;;;;;28.36;16.12;95976.66;4962406;28;19925;-69
2023/07/07 11:58:36;;;;;;;;;;;;;;;29.22;15.81;95965.50;4965371;28;19922;-68
2023/07/07 12:01:20;;;;;;;;;;;;;;;29.90;15.33;95969.06;4961272;28;20000;-68
2023/07/07 12:03:51;;;;;;;;;;;;;;;29.66;15.96;95971.81;4947137;28;20027;-67
2023/07/07 12:06:19;;;;;;;;;;;;;;;28.18;15.94;95966.38;4944770;28;19961;-67
2023/07/07 12:09:14;;;;;;;;;;;;;;;29.15;14.07;95965.81;4959777;28;19932;-67
2023/07/07 12:11:41;;;;;;;;;;;;;;;28.30;15.15;95968.78;4942282;28;19978;-66
2023/07/07 12:14:21;;;;;;;;;;;;;;;28.28;13.81;95967.13;4958672;28;19938;-66
2023/07/07 12:16:47;;;;;;;;;;;;;;;28.28;14.08;95967.13;4953422;28;20164;-66
2023/07/07 12:19:14;;;;;;;;;;;;;;;28.47;15.01;95957.38;4953302;28;20032;-68
2023/07/07 12:21:39;;;;;;;;;;;;;;;28.48;14.76;95950.84;4953625;28;19914;-67
2023/07/07 12:24:40;;;;;;;;;;;;;;;28.64;14.51;95948.75;4948889;28;20380;-66
2023/07/07 12:27:10;;;;;;;;;;;;;;;28.96;16.36;95950.13;4870394;29;20261;-66
2023/07/07 12:29:36;;;;;;;;;;;;;;;29.42;15.73;95953.47;4940124;28;19958;-68
2023/07/07 12:32:01;;;;;;;;;;;;;;;29.80;15.50;95948.06;4954078;28;19927;-67
2023/07/07 12:34:36;;;;;;;;;;;;;;;29.97;14.99;95948.66;4948342;28;20034;-68
2023/07/07 12:37:04;;;;;;;;;;;;;;;30.53;14.94;95952.47;4946221;28;20205;-66
2023/07/07 12:39:29;;;;;;;;;;;;;;;30.75;15.23;95942.78;4943699;28;19989;-66
2023/07/07 12:41:54;;;;;;;;;;;;;;;30.91;15.26;95945.25;4940825;28;19961;-68
2023/07/07 12:44:19;;;;;;;;;;;;;;;31.32;15.33;95935.41;4952841;28;19955;-68
2023/07/07 12:46:45;;;;;;;;;;;;;;;31.75;12.91;95938.94;4942861;28;19918;-67
2023/07/07 12:49:21;;;;;;;;;;;;;;;31.80;14.05;95942.41;4943341;28;19926;-68